sensor_id;sensor_type;location;lat;lon;timestamp;pressure;altitude;pressure_sealevel;temperature;humidity
25156;BME280;21913;52.456;13.634;2022-10-04T00:03:47;101082.59;;;16.38;67.36
25156;BME280;21913;52.456;13.634;2022-10-04T00:08:57;101076.53;;;16.37;67.08
25156;BME280;21913;52.456;13.634;2022-10-04T00:14:06;101089.56;;;16.39;67.36
25156;BME280;21913;52.456;13.634;2022-10-04T00:24:23;101077.38;;;16.39;67.32
25156;BME280;21913;52.456;13.634;2022-10-04T00:49:51;101043.41;;;16.36;67.32
25156;BME280;21913;52.456;13.634;2022-10-04T00:54:59;101058.25;;;16.37;67.25
25156;BME280;21913;52.456;13.634;2022-10-04T01:00:06;101053.00;;;16.36;67.23
25156;BME280;21913;52.456;13.634;2022-10-04T01:11:08;101044.31;;;16.37;67.38
25156;BME280;21913;52.456;13.634;2022-10-04T01:15:56;101033.88;;;16.37;67.45
25156;BME280;21913;52.456;13.634;2022-10-04T01:21:29;101014.69;;;16.36;67.30
25156;BME280;21913;52.456;13.634;2022-10-04T01:26:41;100999.91;;;16.37;67.09
25156;BME280;21913;52.456;13.634;2022-10-04T01:31:47;101001.66;;;16.35;67.08
25156;BME280;21913;52.456;13.634;2022-10-04T01:36:51;101005.13;;;16.35;67.50
25156;BME280;21913;52.456;13.634;2022-10-04T01:47:02;100999.91;;;16.35;67.22
25156;BME280;21913;52.456;13.634;2022-10-04T01:52:12;100986.84;;;16.35;67.36
25156;BME280;21913;52.456;13.634;2022-10-04T01:57:16;100978.16;;;16.35;67.37
25156;BME280;21913;52.456;13.634;2022-10-04T02:03:03;100965.09;;;16.35;67.30
25156;BME280;21913;52.456;13.634;2022-10-04T02:07:46;100975.53;;;16.35;67.36
25156;BME280;21913;52.456;13.634;2022-10-04T02:12:51;100971.19;;;16.34;67.50
25156;BME280;21913;52.456;13.634;2022-10-04T02:17:54;100967.72;;;16.35;67.06
25156;BME280;21913;52.456;13.634;2022-10-04T02:22:58;100978.16;;;16.35;67.08
25156;BME280;21913;52.456;13.634;2022-10-04T02:28:01;100972.06;;;16.34;67.26
25156;BME280;21913;52.456;13.634;2022-10-04T02:33:03;100957.25;;;16.35;67.13
25156;BME280;21913;52.456;13.634;2022-10-04T02:38:20;100952.03;;;16.35;67.42
25156;BME280;21913;52.456;13.634;2022-10-04T02:48:49;100943.38;;;16.33;67.07
25156;BME280;21913;52.456;13.634;2022-10-04T02:59:14;100945.09;;;16.30;67.23
25156;BME280;21913;52.456;13.634;2022-10-04T03:04:17;100937.28;;;16.32;67.21
25156;BME280;21913;52.456;13.634;2022-10-04T03:09:22;100939.88;;;16.32;67.08
25156;BME280;21913;52.456;13.634;2022-10-04T03:14:27;100938.13;;;16.33;67.14
25156;BME280;21913;52.456;13.634;2022-10-04T03:19:30;100938.13;;;16.33;67.24
25156;BME280;21913;52.456;13.634;2022-10-04T03:24:36;100934.63;;;16.34;67.20
25156;BME280;21913;52.456;13.634;2022-10-04T03:29:40;100935.53;;;16.33;67.40
25156;BME280;21913;52.456;13.634;2022-10-04T03:34:51;100932.91;;;16.33;67.06
25156;BME280;21913;52.456;13.634;2022-10-04T03:39:54;100934.66;;;16.32;67.42
25156;BME280;21913;52.456;13.634;2022-10-04T03:45:03;100918.09;;;16.33;67.21
25156;BME280;21913;52.456;13.634;2022-10-04T03:50:24;100918.97;;;16.34;67.29
25156;BME280;21913;52.456;13.634;2022-10-04T03:55:35;100919.00;;;16.32;67.36
25156;BME280;21913;52.456;13.634;2022-10-04T04:00:42;100924.22;;;16.32;67.45
25156;BME280;21913;52.456;13.634;2022-10-04T04:05:49;100916.38;;;16.30;67.10
25156;BME280;21913;52.456;13.634;2022-10-04T04:10:57;100908.56;;;16.32;67.12
25156;BME280;21913;52.456;13.634;2022-10-04T04:16:00;100894.63;;;16.32;67.29
25156;BME280;21913;52.456;13.634;2022-10-04T04:21:03;100888.53;;;16.31;67.16
25156;BME280;21913;52.456;13.634;2022-10-04T04:26:26;100884.19;;;16.32;67.10
25156;BME280;21913;52.456;13.634;2022-10-04T04:31:32;100885.03;;;16.30;67.15
25156;BME280;21913;52.456;13.634;2022-10-04T04:36:40;100889.41;;;16.32;67.19
25156;BME280;21913;52.456;13.634;2022-10-04T04:41:41;100882.44;;;16.30;67.11
25156;BME280;21913;52.456;13.634;2022-10-04T04:46:45;100883.31;;;16.31;67.12
25156;BME280;21913;52.456;13.634;2022-10-04T04:51:49;100877.22;;;16.30;67.43
25156;BME280;21913;52.456;13.634;2022-10-04T04:56:53;100871.13;;;16.30;67.11
25156;BME280;21913;52.456;13.634;2022-10-04T05:01:55;100872.88;;;16.31;67.14
25156;BME280;21913;52.456;13.634;2022-10-04T05:07:01;100867.66;;;16.31;67.05
25156;BME280;21913;52.456;13.634;2022-10-04T05:12:14;100868.53;;;16.32;67.37
25156;BME280;21913;52.456;13.634;2022-10-04T05:17:23;100872.88;;;16.31;67.28
25156;BME280;21913;52.456;13.634;2022-10-04T05:22:26;100875.47;;;16.29;67.04
25156;BME280;21913;52.456;13.634;2022-10-04T05:27:36;100887.66;;;16.30;67.34
25156;BME280;21913;52.456;13.634;2022-10-04T05:38:05;100887.66;;;16.30;67.31
25156;BME280;21913;52.456;13.634;2022-10-04T05:48:29;100870.25;;;16.29;67.26
25156;BME280;21913;52.456;13.634;2022-10-04T05:53:31;100864.16;;;16.30;67.24
25156;BME280;21913;52.456;13.634;2022-10-04T06:09:24;100875.47;;;16.29;67.08
25156;BME280;21913;52.456;13.634;2022-10-04T06:14:49;100874.63;;;16.29;67.25
25156;BME280;21913;52.456;13.634;2022-10-04T06:30:22;100879.88;;;16.27;67.50
25156;BME280;21913;52.456;13.634;2022-10-04T06:35:47;100872.91;;;16.28;67.20
25156;BME280;21913;52.456;13.634;2022-10-04T06:57:19;100871.16;;;16.27;67.26
25156;BME280;21913;52.456;13.634;2022-10-04T07:02:37;100871.16;;;16.28;67.17
25156;BME280;21913;52.456;13.634;2022-10-04T07:07:43;100861.59;;;16.27;67.41
25156;BME280;21913;52.456;13.634;2022-10-04T07:18:21;100869.41;;;16.27;67.11
25156;BME280;21913;52.456;13.634;2022-10-04T07:23:27;100865.94;;;16.27;67.33
25156;BME280;21913;52.456;13.634;2022-10-04T07:28:38;100868.56;;;16.27;67.26
25156;BME280;21913;52.456;13.634;2022-10-04T07:33:43;100867.69;;;16.26;67.51
25156;BME280;21913;52.456;13.634;2022-10-04T07:38:50;100878.97;;;16.28;67.41
25156;BME280;21913;52.456;13.634;2022-10-04T07:44:14;100877.25;;;16.27;67.14
25156;BME280;21913;52.456;13.634;2022-10-04T07:49:19;100892.06;;;16.27;67.47
25156;BME280;21913;52.456;13.634;2022-10-04T07:54:31;100887.69;;;16.27;67.52
25156;BME280;21913;52.456;13.634;2022-10-04T08:04:57;100890.34;;;16.26;67.38
25156;BME280;21913;52.456;13.634;2022-10-04T08:10:19;100882.47;;;16.27;67.17
25156;BME280;21913;52.456;13.634;2022-10-04T08:15:39;100892.91;;;16.27;67.31
25156;BME280;21913;52.456;13.634;2022-10-04T08:20:57;100893.81;;;16.26;67.48
25156;BME280;21913;52.456;13.634;2022-10-04T09:03:47;100885.94;;;16.29;67.32
25156;BME280;21913;52.456;13.634;2022-10-04T09:20:31;100885.03;;;16.34;67.07
25156;BME280;21913;52.456;13.634;2022-10-04T09:31:09;100878.03;;;16.36;67.22
25156;BME280;21913;52.456;13.634;2022-10-04T09:36:38;100868.44;;;16.36;67.27
25156;BME280;21913;52.456;13.634;2022-10-04T09:42:12;100846.69;;;16.36;67.12
25156;BME280;21913;52.456;13.634;2022-10-04T09:47:29;100838.00;;;16.35;67.11
25156;BME280;21913;52.456;13.634;2022-10-04T09:52:47;100842.34;;;16.35;67.40
25156;BME280;21913;52.456;13.634;2022-10-04T10:08:56;100830.22;;;16.32;67.57
25156;BME280;21913;52.456;13.634;2022-10-04T10:14:34;100826.72;;;16.32;67.33
25156;BME280;21913;52.456;13.634;2022-10-04T10:20:02;100819.75;;;16.30;67.40
25156;BME280;21913;52.456;13.634;2022-10-04T10:36:40;100820.66;;;16.31;67.35
25156;BME280;21913;52.456;13.634;2022-10-04T10:42:00;100810.19;;;16.29;67.57
25156;BME280;21913;52.456;13.634;2022-10-04T10:47:33;100807.59;;;16.29;67.49
25156;BME280;21913;52.456;13.634;2022-10-04T10:52:59;100808.47;;;16.28;67.54
25156;BME280;21913;52.456;13.634;2022-10-04T11:41:11;100778.91;;;16.26;67.47
25156;BME280;21913;52.456;13.634;2022-10-04T11:46:41;100761.50;;;16.27;67.57
25156;BME280;21913;52.456;13.634;2022-10-04T11:52:14;100768.44;;;16.28;67.83
25156;BME280;21913;52.456;13.634;2022-10-04T12:13:41;100736.25;;;16.27;67.48
25156;BME280;21913;52.456;13.634;2022-10-04T12:18:57;100725.81;;;16.27;67.75
25156;BME280;21913;52.456;13.634;2022-10-04T13:22:53;100655.34;;;16.26;67.60
25156;BME280;21913;52.456;13.634;2022-10-04T13:28:06;100661.41;;;16.26;67.92
25156;BME280;21913;52.456;13.634;2022-10-04T13:44:15;100642.25;;;16.27;67.77
25156;BME280;21913;52.456;13.634;2022-10-04T14:00:12;100632.69;;;16.25;68.03
25156;BME280;21913;52.456;13.634;2022-10-04T14:16:18;100617.91;;;16.27;67.76
25156;BME280;21913;52.456;13.634;2022-10-04T14:37:44;100621.38;;;16.27;67.79
25156;BME280;21913;52.456;13.634;2022-10-04T14:42:54;100622.25;;;16.26;67.76
25156;BME280;21913;52.456;13.634;2022-10-04T14:53:33;100598.75;;;16.26;67.94
25156;BME280;21913;52.456;13.634;2022-10-04T14:59:00;100596.16;;;16.26;67.82
25156;BME280;21913;52.456;13.634;2022-10-04T15:30:59;100581.34;;;16.27;67.96
25156;BME280;21913;52.456;13.634;2022-10-04T15:42:23;100587.47;;;16.26;67.95
25156;BME280;21913;52.456;13.634;2022-10-04T15:53:21;100583.09;;;16.26;67.90
25156;BME280;21913;52.456;13.634;2022-10-04T16:20:13;100598.75;;;16.25;68.08
25156;BME280;21913;52.456;13.634;2022-10-04T16:36:10;100610.06;;;16.25;68.10
25156;BME280;21913;52.456;13.634;2022-10-04T16:41:29;100597.91;;;16.24;68.09
25156;BME280;21913;52.456;13.634;2022-10-04T16:46:37;100610.94;;;16.24;68.23
25156;BME280;21913;52.456;13.634;2022-10-04T16:51:50;100600.50;;;16.24;68.08
25156;BME280;21913;52.456;13.634;2022-10-04T17:07:26;100601.41;;;16.23;68.14
25156;BME280;21913;52.456;13.634;2022-10-04T17:12:41;100609.22;;;16.23;68.16
25156;BME280;21913;52.456;13.634;2022-10-04T17:23:16;100599.66;;;16.24;68.12
25156;BME280;21913;52.456;13.634;2022-10-04T17:50:00;100597.06;;;16.22;68.45
25156;BME280;21913;52.456;13.634;2022-10-04T17:55:35;100591.84;;;16.22;68.19
25156;BME280;21913;52.456;13.634;2022-10-04T18:06:45;100597.06;;;16.22;68.11
25156;BME280;21913;52.456;13.634;2022-10-04T18:17:07;100591.84;;;16.22;68.49
25156;BME280;21913;52.456;13.634;2022-10-04T18:22:17;100594.47;;;16.22;68.46
25156;BME280;21913;52.456;13.634;2022-10-04T18:27:23;100612.72;;;16.22;68.43
25156;BME280;21913;52.456;13.634;2022-10-04T18:37:33;100612.72;;;16.22;68.24
25156;BME280;21913;52.456;13.634;2022-10-04T18:42:40;100608.41;;;16.21;68.37
25156;BME280;21913;52.456;13.634;2022-10-04T18:47:42;100611.88;;;16.22;68.45
25156;BME280;21913;52.456;13.634;2022-10-04T19:03:35;100610.97;;;16.23;68.19
25156;BME280;21913;52.456;13.634;2022-10-04T19:08:48;100606.66;;;16.22;68.39
25156;BME280;21913;52.456;13.634;2022-10-04T19:40:44;100623.22;;;16.21;68.16
25156;BME280;21913;52.456;13.634;2022-10-04T19:51:45;100594.50;;;16.21;68.35
25156;BME280;21913;52.456;13.634;2022-10-04T19:56:53;100604.94;;;16.21;68.30
25156;BME280;21913;52.456;13.634;2022-10-04T20:01:56;100611.91;;;16.20;68.18
25156;BME280;21913;52.456;13.634;2022-10-04T20:07:00;100607.53;;;16.21;68.36
25156;BME280;21913;52.456;13.634;2022-10-04T20:12:04;100609.28;;;16.20;68.29
25156;BME280;21913;52.456;13.634;2022-10-04T20:17:05;100615.38;;;16.21;68.23
25156;BME280;21913;52.456;13.634;2022-10-04T20:43:25;100604.06;;;16.20;68.44
25156;BME280;21913;52.456;13.634;2022-10-04T20:48:27;100594.50;;;16.21;68.29
25156;BME280;21913;52.456;13.634;2022-10-04T20:53:31;100596.25;;;16.20;68.17
25156;BME280;21913;52.456;13.634;2022-10-04T20:58:33;100593.63;;;16.20;68.41
25156;BME280;21913;52.456;13.634;2022-10-04T21:03:35;100584.91;;;16.20;68.44
25156;BME280;21913;52.456;13.634;2022-10-04T21:08:37;100591.88;;;16.19;68.45
25156;BME280;21913;52.456;13.634;2022-10-04T21:18:46;100603.19;;;16.20;68.36
25156;BME280;21913;52.456;13.634;2022-10-04T21:23:47;100598.84;;;16.20;68.45
25156;BME280;21913;52.456;13.634;2022-10-04T21:28:56;100586.66;;;16.19;68.50
25156;BME280;21913;52.456;13.634;2022-10-04T21:33:58;100596.25;;;16.19;68.29
25156;BME280;21913;52.456;13.634;2022-10-04T21:38:59;100598.84;;;16.20;68.23
25156;BME280;21913;52.456;13.634;2022-10-04T21:44:00;100596.25;;;16.19;68.36
25156;BME280;21913;52.456;13.634;2022-10-04T21:49:03;100597.09;;;16.19;68.44
25156;BME280;21913;52.456;13.634;2022-10-04T21:54:05;100591.00;;;16.19;68.48
25156;BME280;21913;52.456;13.634;2022-10-04T21:59:07;100591.00;;;16.19;68.63
25156;BME280;21913;52.456;13.634;2022-10-04T22:04:09;100581.44;;;16.19;68.33
25156;BME280;21913;52.456;13.634;2022-10-04T22:09:10;100587.53;;;16.18;68.26
25156;BME280;21913;52.456;13.634;2022-10-04T22:14:12;100590.16;;;16.18;68.51
25156;BME280;21913;52.456;13.634;2022-10-04T22:19:13;100578.84;;;16.18;68.18
25156;BME280;21913;52.456;13.634;2022-10-04T22:24:17;100595.38;;;16.18;68.39
25156;BME280;21913;52.456;13.634;2022-10-04T22:29:20;100596.25;;;16.19;68.49
25156;BME280;21913;52.456;13.634;2022-10-04T22:34:21;100588.41;;;16.19;68.45
25156;BME280;21913;52.456;13.634;2022-10-04T22:39:23;100579.72;;;16.18;68.49
25156;BME280;21913;52.456;13.634;2022-10-04T22:44:33;100578.81;;;16.19;68.17
25156;BME280;21913;52.456;13.634;2022-10-04T22:49:36;100582.31;;;16.18;68.32
25156;BME280;21913;52.456;13.634;2022-10-04T22:54:42;100575.34;;;16.19;68.21
25156;BME280;21913;52.456;13.634;2022-10-04T22:59:49;100564.03;;;16.18;68.51
25156;BME280;21913;52.456;13.634;2022-10-04T23:04:53;100560.56;;;16.18;68.52
25156;BME280;21913;52.456;13.634;2022-10-04T23:09:55;100571.88;;;16.18;68.45
25156;BME280;21913;52.456;13.634;2022-10-04T23:14:57;100578.84;;;16.18;68.46
25156;BME280;21913;52.456;13.634;2022-10-04T23:20:15;100577.09;;;16.18;68.55
25156;BME280;21913;52.456;13.634;2022-10-04T23:25:25;100583.22;;;16.17;68.46
25156;BME280;21913;52.456;13.634;2022-10-04T23:30:27;100576.31;;;16.15;68.47
25156;BME280;21913;52.456;13.634;2022-10-04T23:35:30;100578.88;;;16.16;68.47
25156;BME280;21913;52.456;13.634;2022-10-04T23:40:32;100573.66;;;16.16;68.67
25156;BME280;21913;52.456;13.634;2022-10-04T23:45:34;100575.41;;;16.16;68.51
25156;BME280;21913;52.456;13.634;2022-10-04T23:50:37;100571.06;;;16.16;68.62
25156;BME280;21913;52.456;13.634;2022-10-04T23:55:41;100565.81;;;16.18;68.38
